createdAt,value
2022-08-29T00:00:48.982Z,62.28
2022-08-29T00:03:18.470Z,61.19
2022-08-29T00:05:49.902Z,60.59
2022-08-29T00:08:19.712Z,60.91
2022-08-29T00:10:47.019Z,60.74
2022-08-29T00:13:14.599Z,61.24
2022-08-29T00:15:45.306Z,60.50
2022-08-29T00:18:14.144Z,61.75
2022-08-29T00:20:42.025Z,61.01
2022-08-29T00:23:09.467Z,60.92
2022-08-29T00:25:36.973Z,61.73
2022-08-29T00:28:05.064Z,62.99
2022-08-29T00:30:32.734Z,62.36
2022-08-29T00:33:00.362Z,61.50
2022-08-29T00:35:32.487Z,60.84
2022-08-29T00:38:00.641Z,62.34
2022-08-29T00:40:33.662Z,62.97
2022-08-29T00:43:01.025Z,62.46
2022-08-29T00:45:28.373Z,61.99
2022-08-29T00:47:57.768Z,62.86
2022-08-29T00:50:29.917Z,62.85
2022-08-29T00:52:59.002Z,62.10
2022-08-29T00:55:27.926Z,61.79
2022-08-29T00:57:56.843Z,61.96
2022-08-29T01:00:25.393Z,62.39
2022-08-29T01:02:54.333Z,61.44
2022-08-29T01:05:22.524Z,61.72
2022-08-29T01:07:52.147Z,61.82
2022-08-29T01:10:38.650Z,61.63
2022-08-29T01:13:06.247Z,61.81
2022-08-29T01:15:34.036Z,61.92
2022-08-29T01:18:01.806Z,62.82
2022-08-29T01:20:52.402Z,62.30
2022-08-29T01:23:27.914Z,62.49
2022-08-29T01:25:56.081Z,62.21
2022-08-29T01:28:25.696Z,63.13
2022-08-29T01:31:04.519Z,63.84
2022-08-29T01:33:41.900Z,62.99
2022-08-29T01:36:12.106Z,62.64
2022-08-29T01:38:41.741Z,63.19
2022-08-29T01:41:10.580Z,63.19
2022-08-29T01:43:42.849Z,63.65
2022-08-29T01:46:12.887Z,63.11
2022-08-29T01:48:41.142Z,63.73
2022-08-29T01:51:08.496Z,64.59
2022-08-29T01:53:37.034Z,64.13
2022-08-29T01:56:18.481Z,63.01
2022-08-29T01:58:47.760Z,63.68
2022-08-29T02:01:16.047Z,64.33
2022-08-29T02:03:43.875Z,64.91
2022-08-29T02:06:11.846Z,64.03
2022-08-29T02:08:39.859Z,63.86
2022-08-29T02:11:11.516Z,64.30
2022-08-29T02:13:39.874Z,63.54
2022-08-29T02:16:09.052Z,63.75
2022-08-29T02:18:36.340Z,63.38
2022-08-29T02:21:04.108Z,62.97
2022-08-29T02:23:33.797Z,62.80
2022-08-29T02:26:01.486Z,64.56
2022-08-29T02:28:29.184Z,64.37
2022-08-29T02:30:57.060Z,64.51
2022-08-29T02:33:24.817Z,64.59
2022-08-29T02:35:53.538Z,63.81
2022-08-29T02:38:22.019Z,64.77
2022-08-29T02:40:50.215Z,63.36
2022-08-29T02:43:19.526Z,64.69
2022-08-29T02:45:47.602Z,65.19
2022-08-29T02:48:18.123Z,64.98
2022-08-29T02:50:46.712Z,64.33
2022-08-29T02:53:15.981Z,64.26
2022-08-29T02:55:43.589Z,64.06
2022-08-29T02:58:10.965Z,65.52
2022-08-29T03:00:39.298Z,65.19
2022-08-29T03:03:08.516Z,64.86
2022-08-29T03:05:37.213Z,64.79
2022-08-29T03:08:07.541Z,64.76
2022-08-29T03:10:35.445Z,66.08
2022-08-29T03:13:03.916Z,65.50
2022-08-29T03:15:33.076Z,65.52
2022-08-29T03:18:01.607Z,64.24
2022-08-29T03:20:29.062Z,64.39
2022-08-29T03:22:57.433Z,64.17
2022-08-29T03:25:24.946Z,64.50
2022-08-29T03:27:53.005Z,64.26
2022-08-29T03:30:21.069Z,64.42
2022-08-29T03:32:51.227Z,64.94
2022-08-29T03:35:19.834Z,64.20
2022-08-29T03:37:47.833Z,64.59
2022-08-29T03:40:15.776Z,64.46
2022-08-29T03:42:43.350Z,64.34
2022-08-29T03:45:13.071Z,63.96
2022-08-29T03:47:41.686Z,63.49
2022-08-29T03:50:09.481Z,64.62
2022-08-29T03:52:37.686Z,64.46
2022-08-29T03:55:08.637Z,63.98
2022-08-29T03:57:36.714Z,64.29
2022-08-29T04:00:12.590Z,63.74
2022-08-29T04:02:46.030Z,64.49
2022-08-29T04:05:15.846Z,64.21
2022-08-29T04:07:46.091Z,64.47
2022-08-29T04:10:17.482Z,64.35
2022-08-29T04:12:45.682Z,64.66
2022-08-29T04:15:14.156Z,64.59
2022-08-29T04:17:53.095Z,64.41
2022-08-29T04:20:28.910Z,64.67
2022-08-29T04:22:59.828Z,65.36
2022-08-29T04:25:28.614Z,64.31
2022-08-29T04:27:55.902Z,64.09
2022-08-29T04:30:24.836Z,65.29
2022-08-29T04:32:57.458Z,65.21
2022-08-29T04:35:25.264Z,65.27
2022-08-29T04:37:57.907Z,65.83
2022-08-29T04:40:26.661Z,65.85
2022-08-29T04:42:55.503Z,66.06
2022-08-29T04:45:27.758Z,65.10
2022-08-29T04:48:01.822Z,64.57
2022-08-29T04:50:32.108Z,64.96
2022-08-29T04:52:59.867Z,64.74
2022-08-29T04:55:27.131Z,65.09
2022-08-29T04:57:56.989Z,65.09
2022-08-29T05:00:27.470Z,64.20
2022-08-29T05:02:55.926Z,64.51
2022-08-29T05:05:27.491Z,64.56
2022-08-29T05:07:57.279Z,64.01
2022-08-29T05:10:30.505Z,62.60
2022-08-29T05:12:59.898Z,63.41
2022-08-29T05:15:28.030Z,63.83
2022-08-29T05:20:53.323Z,64.84
2022-08-29T05:23:21.361Z,65.05
2022-08-29T05:25:55.126Z,63.00
2022-08-29T05:28:22.971Z,63.50
2022-08-29T05:30:51.016Z,64.10
2022-08-29T05:33:18.793Z,63.96
2022-08-29T05:35:56.641Z,62.83
2022-08-29T05:38:28.030Z,62.02
2022-08-29T05:41:09.625Z,61.67
2022-08-29T05:43:42.570Z,61.18
2022-08-29T05:46:13.662Z,62.39
2022-08-29T05:48:48.918Z,60.66
2022-08-29T05:51:24.569Z,62.52
2022-08-29T05:53:52.831Z,61.25
2022-08-29T05:56:21.027Z,61.29
2022-08-29T05:58:52.720Z,59.83
2022-08-29T06:01:26.442Z,61.12
2022-08-29T06:03:56.399Z,60.91
2022-08-29T06:06:30.521Z,61.49
2022-08-29T06:08:59.980Z,61.25
2022-08-29T06:11:30.191Z,59.83
2022-08-29T06:14:10.487Z,59.06
2022-08-29T06:16:40.879Z,59.15
2022-08-29T06:19:08.832Z,58.74
2022-08-29T06:24:21.455Z,58.04
2022-08-29T06:26:52.075Z,58.63
2022-08-29T06:29:32.293Z,58.21
2022-08-29T06:32:09.823Z,58.14
2022-08-29T06:34:37.699Z,58.10
2022-08-29T06:37:05.930Z,57.97
2022-08-29T06:39:37.585Z,57.12
2022-08-29T06:42:05.961Z,56.82
2022-08-29T06:44:34.764Z,58.21
2022-08-29T06:47:03.704Z,57.45
2022-08-29T06:49:32.611Z,56.02
2022-08-29T06:52:00.570Z,56.12
2022-08-29T06:54:29.493Z,55.73
2022-08-29T06:57:00.596Z,56.29
2022-08-29T06:59:31.649Z,57.33
2022-08-29T07:02:09.796Z,55.23
2022-08-29T07:04:38.001Z,54.96
2022-08-29T07:07:14.643Z,55.05
2022-08-29T07:09:44.331Z,54.87
2022-08-29T07:12:14.524Z,55.06
2022-08-29T07:14:45.862Z,54.13
2022-08-29T07:17:18.981Z,55.21
2022-08-29T07:19:58.897Z,54.70
2022-08-29T07:22:27.955Z,54.56
2022-08-29T07:24:56.493Z,55.04
2022-08-29T07:27:24.620Z,54.42
2022-08-29T07:29:54.422Z,53.23
2022-08-29T07:32:26.050Z,52.82
2022-08-29T07:34:56.099Z,52.37
2022-08-29T07:37:25.577Z,53.45
2022-08-29T07:39:53.386Z,51.99
2022-08-29T07:42:29.711Z,52.68
2022-08-29T07:44:58.384Z,52.25
2022-08-29T07:47:29.714Z,50.91
2022-08-29T07:50:15.526Z,51.00
2022-08-29T07:52:44.621Z,50.91
2022-08-29T07:55:22.097Z,50.42
2022-08-29T07:57:56.904Z,51.08
2022-08-29T08:00:29.130Z,49.50
2022-08-29T08:02:58.076Z,48.41
2022-08-29T08:05:32.642Z,49.38
2022-08-29T08:08:13.817Z,48.95
2022-08-29T08:11:16.549Z,50.15
2022-08-29T08:13:49.825Z,49.95
2022-08-29T08:16:19.090Z,50.52
2022-08-29T08:18:49.550Z,49.87
2022-08-29T08:21:17.498Z,49.71
2022-08-29T08:23:53.385Z,49.97
2022-08-29T08:26:21.920Z,48.04
2022-08-29T08:28:55.198Z,47.72
2022-08-29T08:31:26.667Z,47.43
2022-08-29T08:33:55.543Z,47.77
2022-08-29T08:36:30.190Z,48.09
2022-08-29T08:39:01.936Z,48.29
2022-08-29T08:41:52.181Z,48.30
2022-08-29T08:44:26.601Z,48.14
2022-08-29T08:47:00.342Z,48.42
2022-08-29T08:49:34.440Z,49.59
2022-08-29T08:52:09.305Z,48.53
2022-08-29T08:57:20.617Z,47.84
2022-08-29T08:59:50.724Z,46.75
2022-08-29T09:02:28.602Z,46.67
2022-08-29T09:05:19.547Z,45.81
2022-08-29T09:07:50.211Z,46.73
2022-08-29T09:10:30.464Z,47.48
2022-08-29T09:13:24.586Z,46.39
2022-08-29T09:16:00.754Z,46.37
2022-08-29T09:18:39.093Z,46.80
2022-08-29T09:21:39.538Z,46.25
2022-08-29T09:24:05.562Z,45.71
2022-08-29T09:26:35.005Z,46.92
2022-08-29T09:29:14.131Z,46.28
2022-08-29T09:31:44.978Z,46.89
2022-08-29T09:34:45.177Z,46.78
2022-08-29T09:37:32.648Z,44.88
2022-08-29T09:40:03.915Z,45.17
2022-08-29T09:42:35.959Z,44.82
2022-08-29T09:48:11.646Z,44.88
2022-08-29T09:50:48.674Z,43.37
2022-08-29T09:53:25.536Z,43.88
2022-08-29T09:55:55.573Z,43.54
2022-08-29T09:58:28.617Z,43.95
2022-08-29T10:00:59.408Z,45.02
2022-08-29T10:03:33.599Z,43.37
2022-08-29T10:06:06.411Z,43.35
2022-08-29T10:08:40.559Z,42.23
2022-08-29T10:11:20.108Z,43.24
2022-08-29T10:14:04.829Z,43.85
2022-08-29T10:16:38.268Z,43.39
2022-08-29T10:19:10.900Z,42.06
2022-08-29T10:21:49.920Z,43.35
2022-08-29T10:27:05.214Z,42.58
2022-08-29T10:29:37.687Z,41.99
2022-08-29T10:32:13.923Z,43.87
2022-08-29T10:34:55.615Z,41.86
2022-08-29T10:37:23.867Z,39.94
2022-08-29T10:40:02.791Z,40.70
2022-08-29T10:45:15.640Z,41.03
2022-08-29T10:47:51.623Z,40.57
2022-08-29T10:53:10.126Z,41.33
2022-08-29T10:56:05.840Z,40.28
2022-08-29T11:01:49.982Z,40.89
2022-08-29T11:04:24.623Z,41.05
2022-08-29T11:07:07.627Z,40.28
2022-08-29T11:09:44.585Z,41.05
2022-08-29T11:12:36.606Z,40.31
2022-08-29T11:15:29.368Z,40.53
2022-08-29T11:18:15.474Z,41.76
2022-08-29T11:21:15.169Z,42.17
2022-08-29T11:23:52.598Z,41.30
2022-08-29T11:26:26.859Z,39.23
2022-08-29T11:29:02.876Z,39.19
2022-08-29T11:31:38.614Z,39.25
2022-08-29T11:34:13.585Z,39.60
2022-08-29T11:37:09.978Z,38.74
2022-08-29T11:39:59.792Z,40.28
2022-08-29T11:42:56.990Z,39.60
2022-08-29T11:45:36.942Z,38.75
2022-08-29T11:48:26.629Z,39.34
2022-08-29T11:51:01.672Z,38.76
2022-08-29T11:53:37.746Z,39.04
2022-08-29T11:56:16.035Z,38.74
2022-08-29T11:58:49.667Z,38.32
2022-08-29T12:01:26.654Z,39.07
2022-08-29T12:04:05.698Z,37.49
2022-08-29T12:06:47.571Z,38.46
2022-08-29T12:09:24.735Z,38.86
2022-08-29T12:12:04.884Z,38.17
2022-08-29T12:14:45.582Z,38.11
2022-08-29T12:17:22.454Z,38.14
2022-08-29T12:20:05.918Z,39.03
2022-08-29T12:22:52.745Z,38.59
2022-08-29T12:25:27.860Z,38.06
2022-08-29T12:28:03.260Z,37.62
2022-08-29T12:30:39.833Z,38.56
2022-08-29T12:33:13.701Z,37.10
2022-08-29T12:36:02.286Z,36.22
2022-08-29T12:38:57.624Z,35.60
2022-08-29T12:41:47.217Z,38.98
2022-08-29T12:44:18.086Z,37.41
2022-08-29T12:46:48.755Z,35.63
2022-08-29T12:49:36.567Z,35.76
2022-08-29T12:52:07.480Z,35.35
2022-08-29T12:54:42.062Z,35.32
2022-08-29T12:57:22.664Z,35.83
2022-08-29T12:59:58.479Z,35.18
2022-08-29T13:02:35.675Z,34.57
2022-08-29T13:05:26.885Z,35.40
2022-08-29T13:08:00.189Z,35.09
2022-08-29T13:10:28.338Z,35.72
2022-08-29T13:15:52.899Z,36.05
2022-08-29T13:18:24.636Z,35.94
2022-08-29T13:24:00.810Z,36.06
2022-08-29T13:26:32.789Z,35.46
2022-08-29T13:29:15.081Z,35.77
2022-08-29T13:31:44.258Z,36.34
2022-08-29T13:34:23.649Z,36.76
2022-08-29T13:37:02.405Z,37.71
2022-08-29T13:39:32.590Z,37.80
2022-08-29T13:42:21.498Z,38.23
2022-08-29T13:44:49.502Z,38.06
2022-08-29T13:50:05.619Z,38.07
2022-08-29T13:52:42.582Z,39.06
2022-08-29T13:55:17.616Z,38.34
2022-08-29T13:57:51.814Z,38.25
2022-08-29T14:00:27.224Z,38.43
2022-08-29T14:03:15.745Z,38.16
2022-08-29T14:05:51.616Z,37.47
2022-08-29T14:08:26.816Z,37.95
2022-08-29T14:11:00.881Z,36.65
2022-08-29T14:13:32.209Z,37.21
2022-08-29T14:16:02.123Z,35.81
2022-08-29T14:18:29.969Z,36.56
2022-08-29T14:21:02.002Z,35.91
2022-08-29T14:23:36.867Z,35.82
2022-08-29T14:26:12.669Z,35.88
2022-08-29T14:28:47.869Z,36.28
2022-08-29T14:31:25.688Z,37.92
2022-08-29T14:33:56.540Z,37.15
2022-08-29T14:36:25.736Z,37.46
2022-08-29T14:38:56.141Z,36.06
2022-08-29T14:41:32.688Z,39.25
2022-08-29T14:44:03.324Z,36.66
2022-08-29T14:46:32.562Z,36.55
2022-08-29T14:49:05.635Z,36.39
2022-08-29T14:51:33.907Z,37.67
2022-08-29T14:54:02.706Z,36.12
2022-08-29T15:01:53.434Z,36.25
2022-08-29T15:04:36.549Z,38.26
2022-08-29T15:07:08.647Z,36.43
2022-08-29T15:09:44.342Z,36.84
2022-08-29T15:12:15.922Z,37.13
2022-08-29T15:14:50.787Z,37.59
2022-08-29T15:17:21.718Z,37.92
2022-08-29T15:20:34.357Z,37.76
2022-08-29T15:22:39.319Z,37.68
2022-08-29T15:25:09.180Z,37.78
2022-08-29T15:27:41.663Z,38.26
2022-08-29T15:30:13.639Z,37.63
2022-08-29T15:32:43.808Z,37.81
2022-08-29T15:35:31.574Z,37.72
2022-08-29T15:38:07.703Z,38.52
2022-08-29T15:40:46.969Z,38.40
2022-08-29T15:43:22.666Z,36.92
2022-08-29T15:45:59.742Z,37.25
2022-08-29T15:48:32.484Z,37.72
2022-08-29T15:51:03.662Z,38.28
2022-08-29T15:53:33.855Z,38.64
2022-08-29T15:56:07.320Z,38.33
2022-08-29T15:58:48.660Z,37.60
2022-08-29T16:04:15.685Z,37.65
2022-08-29T16:06:53.950Z,37.01
2022-08-29T16:09:30.701Z,37.80
2022-08-29T16:11:58.685Z,37.77
2022-08-29T16:17:30.084Z,39.23
2022-08-29T16:20:00.980Z,38.39
2022-08-29T16:22:37.442Z,40.22
2022-08-29T16:25:06.951Z,39.02
2022-08-29T16:27:35.314Z,38.21
2022-08-29T16:30:04.987Z,38.27
2022-08-29T16:32:34.044Z,38.80
2022-08-29T16:35:04.552Z,38.83
2022-08-29T16:37:45.621Z,38.67
2022-08-29T16:40:28.066Z,39.34
2022-08-29T16:43:00.678Z,39.37
2022-08-29T16:45:33.015Z,40.54
2022-08-29T16:48:10.776Z,39.52
2022-08-29T16:50:51.076Z,39.20
2022-08-29T16:53:38.519Z,39.58
2022-08-29T16:56:17.646Z,38.67
2022-08-29T16:59:03.790Z,40.05
2022-08-29T17:01:39.930Z,40.62
2022-08-29T17:04:15.055Z,40.82
2022-08-29T17:06:47.681Z,41.33
2022-08-29T17:11:51.866Z,41.33
2022-08-29T17:14:30.166Z,41.57
2022-08-29T17:17:03.264Z,41.85
2022-08-29T17:19:33.526Z,42.14
2022-08-29T17:22:06.036Z,42.52
2022-08-29T17:24:34.700Z,42.24
2022-08-29T17:27:06.749Z,42.46
2022-08-29T17:32:24.770Z,42.10
2022-08-29T17:34:52.996Z,42.25
2022-08-29T17:37:24.158Z,42.88
2022-08-29T17:39:59.069Z,42.98
2022-08-29T17:42:28.048Z,42.73
2022-08-29T17:45:04.772Z,43.01
2022-08-29T17:47:34.941Z,42.86
2022-08-29T17:50:05.758Z,43.08
2022-08-29T17:52:47.417Z,42.94
2022-08-29T17:55:15.408Z,43.61
2022-08-29T17:58:00.156Z,44.05
2022-08-29T18:00:37.826Z,44.19
2022-08-29T18:03:14.946Z,43.63
2022-08-29T18:05:44.692Z,43.85
2022-08-29T18:08:17.846Z,43.66
2022-08-29T18:10:57.710Z,44.44
2022-08-29T18:13:26.125Z,45.20
2022-08-29T18:18:42.365Z,46.24
2022-08-29T18:21:32.839Z,45.97
2022-08-29T18:24:10.803Z,46.60
2022-08-29T18:29:22.904Z,46.57
2022-08-29T18:31:52.081Z,47.06
2022-08-29T18:37:05.667Z,47.09
2022-08-29T18:39:44.167Z,46.84
2022-08-29T18:42:38.816Z,46.74
2022-08-29T18:45:09.698Z,46.78
2022-08-29T18:47:46.996Z,47.02
2022-08-29T18:50:29.679Z,46.41
2022-08-29T18:52:58.864Z,46.23
2022-08-29T18:55:34.794Z,45.73
2022-08-29T18:58:09.964Z,46.14
2022-08-29T19:00:46.133Z,46.34
2022-08-29T19:03:18.755Z,46.38
2022-08-29T19:06:07.722Z,46.95
2022-08-29T19:08:41.881Z,47.10
2022-08-29T19:11:22.911Z,46.88
2022-08-29T19:13:53.867Z,47.46
2022-08-29T19:16:32.824Z,47.68
2022-08-29T19:19:16.832Z,48.59
2022-08-29T19:21:54.608Z,48.38
2022-08-29T19:24:43.734Z,48.44
2022-08-29T19:27:42.352Z,49.48
2022-08-29T19:30:19.703Z,49.07
2022-08-29T19:33:03.788Z,49.07
2022-08-29T19:35:33.315Z,48.84
2022-08-29T19:38:04.873Z,50.21
2022-08-29T19:40:39.930Z,50.48
2022-08-29T19:43:17.856Z,50.94
2022-08-29T19:45:59.014Z,50.94
2022-08-29T19:48:33.764Z,50.93
2022-08-29T19:51:12.890Z,51.52
2022-08-29T19:53:55.893Z,51.47
2022-08-29T19:56:26.900Z,51.71
2022-08-29T19:58:59.799Z,51.76
2022-08-29T20:01:36.817Z,52.28
2022-08-29T20:04:13.217Z,52.31
2022-08-29T20:06:42.385Z,52.06
2022-08-29T20:09:25.181Z,51.56
2022-08-29T20:11:56.840Z,52.45
2022-08-29T20:14:40.172Z,51.80
2022-08-29T20:17:13.729Z,52.51
2022-08-29T20:22:25.732Z,52.66
2022-08-29T20:24:55.754Z,52.84
2022-08-29T20:30:04.971Z,53.38
2022-08-29T20:32:56.760Z,53.98
2022-08-29T20:35:52.167Z,53.40
2022-08-29T20:38:22.158Z,54.47
2022-08-29T20:41:09.147Z,54.34
2022-08-29T20:43:39.330Z,53.88
2022-08-29T20:46:08.153Z,53.99
2022-08-29T20:48:44.731Z,54.75
2022-08-29T20:51:14.122Z,54.82
2022-08-29T20:53:45.052Z,54.96
2022-08-29T20:58:47.847Z,54.71
2022-08-29T21:01:16.835Z,54.90
2022-08-29T21:04:04.830Z,55.36
2022-08-29T21:06:34.263Z,55.22
2022-08-29T21:09:02.750Z,55.20
2022-08-29T21:11:32.065Z,55.45
2022-08-29T21:14:00.615Z,55.36
2022-08-29T21:16:28.684Z,55.55
2022-08-29T21:18:57.162Z,55.59
2022-08-29T21:21:28.069Z,56.15
2022-08-29T21:23:56.656Z,55.75
2022-08-29T21:26:24.769Z,55.74
2022-08-29T21:28:52.913Z,56.70
2022-08-29T21:31:23.945Z,56.44
2022-08-29T21:33:51.654Z,56.53
2022-08-29T21:36:22.651Z,56.76
2022-08-29T21:38:52.759Z,56.89
2022-08-29T21:41:21.985Z,56.98
2022-08-29T21:43:50.989Z,56.62
2022-08-29T21:46:26.030Z,57.28
2022-08-29T21:48:58.015Z,56.62
2022-08-29T21:51:25.986Z,57.04
2022-08-29T21:53:56.156Z,57.76
2022-08-29T21:56:24.368Z,58.34
2022-08-29T21:58:54.770Z,57.85
2022-08-29T22:01:27.921Z,58.11
2022-08-29T22:03:57.155Z,57.29
2022-08-29T22:06:27.693Z,57.98
2022-08-29T22:09:02.094Z,58.54
2022-08-29T22:11:37.122Z,58.41
2022-08-29T22:14:06.706Z,58.13
2022-08-29T22:16:34.827Z,57.96
2022-08-29T22:19:15.006Z,58.37
2022-08-29T22:21:44.986Z,58.51
2022-08-29T22:24:13.350Z,58.35
2022-08-29T22:26:41.149Z,58.38
2022-08-29T22:29:11.937Z,58.84
2022-08-29T22:31:40.429Z,58.73
2022-08-29T22:34:11.620Z,58.94
2022-08-29T22:36:39.252Z,59.04
2022-08-29T22:39:08.042Z,60.60
2022-08-29T22:41:36.673Z,59.82
2022-08-29T22:46:54.537Z,59.40
2022-08-29T22:49:24.829Z,59.38
2022-08-29T22:51:55.505Z,59.16
2022-08-29T22:54:36.678Z,58.96
2022-08-29T22:57:07.186Z,60.00
2022-08-29T22:59:34.877Z,59.78
2022-08-29T23:02:02.842Z,59.97
2022-08-29T23:04:30.761Z,60.07
2022-08-29T23:06:58.375Z,60.47
2022-08-29T23:09:26.039Z,60.49
2022-08-29T23:11:53.999Z,60.16
2022-08-29T23:14:21.494Z,60.85
2022-08-29T23:16:49.095Z,60.11
2022-08-29T23:19:16.868Z,60.65
2022-08-29T23:21:44.993Z,60.79
2022-08-29T23:24:12.451Z,61.95
2022-08-29T23:26:42.894Z,61.11
2022-08-29T23:29:10.882Z,61.48
2022-08-29T23:31:38.714Z,61.51
2022-08-29T23:34:07.588Z,61.21
2022-08-29T23:36:36.001Z,61.60
2022-08-29T23:39:05.841Z,61.14
2022-08-29T23:41:34.007Z,61.70
2022-08-29T23:44:01.435Z,61.52
2022-08-29T23:46:29.971Z,61.91
2022-08-29T23:48:58.745Z,61.37
2022-08-29T23:51:28.289Z,62.04
2022-08-29T23:53:55.843Z,61.92
2022-08-29T23:56:25.358Z,61.64
2022-08-29T23:58:57.112Z,61.51
